Time;durP1;ratioP1;P1;durP2;ratioP2;P2;SDS_P1;SDS_P2;PMS_P1;PMS_P2;Temp;Humidity;BMP_temperature;BMP_pressure;BME280_temperature;BME280_humidity;BME280_pressure;Samples;Min_cycle;Max_cycle;Signal;HPM_P1;HPM_P2
2023/03/17 00:01:25;;;;;;;2.35;1.15;;;;;;;18.29;28.62;101139.25;4957431;28;20392;-68
2023/03/17 00:03:54;;;;;;;4.03;1.20;;;;;;;18.30;28.77;101138.38;4967958;28;20050;-68
2023/03/17 00:06:28;;;;;;;4.10;1.13;;;;;;;18.28;27.05;101124.38;4964456;28;20496;-69
2023/03/17 00:08:57;;;;;;;2.33;1.10;;;;;;;18.30;27.81;101123.56;4969353;28;20050;-70
2023/03/17 00:11:28;;;;;;;3.17;1.10;;;;;;;18.29;28.57;101118.31;4962356;28;20283;-68
2023/03/17 00:13:56;;;;;;;3.03;0.88;;;;;;;18.27;28.42;101120.03;4963573;28;20047;-69
2023/03/17 00:16:27;;;;;;;1.63;0.93;;;;;;;18.11;28.41;101121.72;4967143;28;20050;-69
2023/03/17 00:18:58;;;;;;;5.80;1.20;;;;;;;17.93;28.64;101117.25;4967612;28;20524;-70
2023/03/17 00:21:29;;;;;;;1.50;0.80;;;;;;;17.86;28.44;101111.13;4960834;28;20113;-69
2023/03/17 00:23:59;;;;;;;2.30;0.90;;;;;;;17.85;28.88;101109.38;4969366;28;20054;-68
2023/03/17 00:26:28;;;;;;;1.83;1.10;;;;;;;17.85;27.77;101100.66;4967113;28;20618;-69
2023/03/17 00:28:57;;;;;;;2.53;1.10;;;;;;;17.82;28.36;101098.00;4969983;28;20104;-69
2023/03/17 00:31:29;;;;;;;4.20;1.10;;;;;;;17.77;28.81;101101.47;4967848;28;20050;-70
2023/03/17 00:33:58;;;;;;;;;;;;;;;17.75;28.82;101108.44;4972585;28;20051;-69
2023/03/17 00:36:29;;;;;;;1.85;1.10;;;;;;;17.70;28.72;101104.88;4968072;28;19922;-70
2023/03/17 00:38:58;;;;;;;2.33;1.20;;;;;;;17.67;29.14;101104.88;4962984;28;20051;-68
2023/03/17 00:41:28;;;;;;;2.35;1.25;;;;;;;17.69;30.67;101094.44;4964184;28;20484;-69
2023/03/17 00:43:57;;;;;;;3.17;1.40;;;;;;;17.64;28.23;101090.88;4965545;28;20133;-70
2023/03/17 00:46:34;;;;;;;3.28;1.23;;;;;;;17.55;28.67;101091.72;4971611;28;20125;-70
2023/03/17 00:49:04;;;;;;;2.97;1.05;;;;;;;17.50;29.36;101091.72;4960497;28;20063;-69
2023/03/17 00:51:32;;;;;;;1.98;1.02;;;;;;;17.46;28.47;101079.47;4965838;28;20531;-70
2023/03/17 00:54:01;;;;;;;2.22;1.10;;;;;;;17.37;28.85;101077.66;4971846;28;20609;-70
2023/03/17 00:56:29;;;;;;;3.38;1.17;;;;;;;17.28;29.20;101077.59;4967333;28;20063;-70
2023/03/17 00:58:58;;;;;;;2.33;0.90;;;;;;;17.21;28.51;101077.56;4972232;28;20137;-70
2023/03/17 01:01:29;;;;;;;2.55;1.05;;;;;;;17.13;29.90;101074.84;4970771;28;20051;-69
2023/03/17 01:03:57;;;;;;;2.03;1.05;;;;;;;17.07;30.62;101078.31;4971905;28;20061;-69
2023/03/17 01:06:26;;;;;;;1.90;0.98;;;;;;;17.02;30.36;101081.75;4971481;28;20281;-69
2023/03/17 01:08:56;;;;;;;3.10;0.80;;;;;;;16.94;29.87;101069.47;4973502;28;20051;-69
2023/03/17 01:11:25;;;;;;;1.85;0.75;;;;;;;16.87;30.29;101077.28;4964591;28;20089;-69
2023/03/17 01:13:54;;;;;;;1.35;0.80;;;;;;;16.80;29.39;101068.50;4965094;28;20383;-69
2023/03/17 01:16:22;;;;;;;1.42;0.60;;;;;;;16.74;30.33;101065.78;4966055;28;20578;-69
2023/03/17 01:18:52;;;;;;;1.48;0.75;;;;;;;16.64;30.50;101063.97;4966547;28;20141;-70
2023/03/17 01:21:21;;;;;;;1.15;1.05;;;;;;;16.55;31.13;101065.59;4971562;28;20608;-69
2023/03/17 01:23:50;;;;;;;2.97;0.80;;;;;;;16.49;30.53;101069.91;4968368;28;20058;-70
2023/03/17 01:26:18;;;;;;;1.65;0.77;;;;;;;16.42;30.47;101065.47;4971240;28;20531;-69
2023/03/17 01:28:47;;;;;;;1.85;0.73;;;;;;;16.32;29.88;101069.72;4969836;28;20074;-70
2023/03/17 01:31:16;;;;;;;1.63;0.60;;;;;;;16.22;31.04;101065.28;4975008;28;20721;-70
2023/03/17 01:33:44;;;;;;;1.23;0.70;;;;;;;16.13;31.22;101066.03;4971738;28;20105;-70
2023/03/17 01:36:15;;;;;;;2.35;0.80;;;;;;;16.05;30.77;101065.94;4967677;28;20133;-69
2023/03/17 01:38:46;;;;;;;1.45;0.50;;;;;;;15.99;30.16;101057.16;4961782;28;20082;-69
2023/03/17 01:41:15;;;;;;;1.88;0.65;;;;;;;15.92;31.13;101056.22;4961602;28;20137;-69
2023/03/17 01:43:44;;;;;;;2.35;0.90;;;;;;;15.82;31.13;101054.34;4966405;28;20098;-70
2023/03/17 01:46:21;;;;;;;3.38;1.13;;;;;;;15.68;31.50;101057.59;4969340;28;20042;-69
2023/03/17 01:49:11;;;;;;;2.42;0.68;;;;;;;15.57;32.35;101058.31;4970796;28;20050;-69
2023/03/17 01:51:50;;;;;;;1.77;0.50;;;;;;;15.45;32.18;101059.91;4966624;28;20071;-69
2023/03/17 01:54:23;;;;;;;1.48;0.50;;;;;;;15.36;31.66;101064.13;4969491;28;20575;-68
2023/03/17 01:56:53;;;;;;;6.68;0.75;;;;;;;15.25;32.91;101067.41;4969294;28;20141;-69
2023/03/17 01:59:27;;;;;;;1.17;0.77;;;;;;;15.17;31.65;101068.19;4963049;28;20492;-69
2023/03/17 02:02:01;;;;;;;0.57;0.40;;;;;;;15.08;31.26;101074.13;4968877;28;20043;-69
2023/03/17 02:04:31;;;;;;;1.67;0.70;;;;;;;15.01;31.81;101067.06;4970644;28;20051;-69
2023/03/17 02:07:03;;;;;;;1.60;0.70;;;;;;;14.92;32.88;101074.72;4970544;28;20069;-70
2023/03/17 02:09:32;;;;;;;;;;;;;;;14.82;33.27;101074.56;4972254;28;20066;-70
2023/03/17 02:12:02;;;;;;;1.35;0.68;;;;;;;14.75;32.74;101070.09;4958201;28;19973;-70
2023/03/17 02:14:31;;;;;;;1.10;0.63;;;;;;;14.65;33.26;101074.25;4961770;28;20046;-70
2023/03/17 02:16:59;;;;;;;1.45;0.73;;;;;;;14.60;33.21;101069.81;4971397;28;20063;-70
2023/03/17 02:19:28;;;;;;;1.38;0.75;;;;;;;14.51;34.00;101080.03;4971793;28;20125;-70
2023/03/17 02:21:59;;;;;;;1.83;1.33;;;;;;;14.42;33.69;101076.41;4968477;28;20042;-69
2023/03/17 02:24:34;;;;;;;1.50;0.50;;;;;;;14.33;34.22;101077.97;4972102;28;20054;-70
2023/03/17 02:27:08;;;;;;;2.60;0.60;;;;;;;14.27;34.58;101075.22;4966367;28;20047;-69
2023/03/17 02:29:37;;;;;;;1.65;0.70;;;;;;;14.18;33.92;101070.75;4966013;28;20055;-70
2023/03/17 02:32:07;;;;;;;1.65;0.90;;;;;;;14.13;34.69;101082.75;4961503;28;21158;-70
2023/03/17 02:34:35;;;;;;;2.22;0.80;;;;;;;14.05;34.74;101080.00;4968938;28;20074;-69
2023/03/17 02:37:06;;;;;;;3.65;0.68;;;;;;;13.98;34.46;101084.22;4970571;28;20504;-69
2023/03/17 02:39:35;;;;;;;1.52;0.80;;;;;;;13.91;34.61;101081.47;4963915;28;20063;-70
2023/03/17 02:42:04;;;;;;;3.20;0.73;;;;;;;13.84;34.23;101085.66;4966578;28;20051;-70
2023/03/17 02:44:32;;;;;;;1.52;0.70;;;;;;;13.78;35.01;101086.38;4974783;28;20061;-70
2023/03/17 02:47:02;;;;;;;2.63;0.68;;;;;;;13.73;35.06;101081.94;4967890;28;20097;-70
2023/03/17 02:49:31;;;;;;;1.10;0.70;;;;;;;13.66;35.40;101082.66;4965967;28;20050;-69
2023/03/17 02:52:00;;;;;;;3.22;0.98;;;;;;;13.61;35.32;101078.22;4969854;28;20046;-69
2023/03/17 02:54:30;;;;;;;1.45;0.63;;;;;;;13.58;35.07;101083.38;4948494;28;20054;-69
2023/03/17 02:56:59;;;;;;;1.25;0.65;;;;;;;13.56;35.00;101078.94;4949924;28;20238;-69
2023/03/17 02:59:29;;;;;;;1.10;0.50;;;;;;;13.50;34.80;101084.03;4945656;28;20762;-70
2023/03/17 03:01:58;;;;;;;2.22;0.90;;;;;;;13.42;35.56;101086.44;4944827;28;20055;-70
2023/03/17 03:04:28;;;;;;;0.85;0.68;;;;;;;13.35;35.16;101089.72;4948045;28;20051;-70
2023/03/17 03:06:57;;;;;;;1.58;0.50;;;;;;;13.31;35.12;101090.50;4941716;28;20048;-70
2023/03/17 03:09:26;;;;;;;1.23;0.50;;;;;;;13.25;35.86;101091.22;4940985;29;20390;-69
2023/03/17 03:11:56;;;;;;;1.20;0.70;;;;;;;13.19;35.08;101085.84;4950882;28;20043;-69
2023/03/17 03:14:25;;;;;;;1.38;0.70;;;;;;;13.12;35.72;101096.94;4947617;28;20058;-69
2023/03/17 03:16:53;;;;;;;1.30;0.65;;;;;;;13.07;35.81;101094.22;4944792;28;20544;-70
2023/03/17 03:19:23;;;;;;;0.57;0.38;;;;;;;13.00;35.62;101100.13;4942249;28;20619;-71
2023/03/17 03:21:51;;;;;;;1.13;0.65;;;;;;;12.94;36.13;101098.25;4949146;28;20051;-70
2023/03/17 03:24:20;;;;;;;3.53;1.95;;;;;;;12.90;36.44;101100.75;4947357;28;20047;-70
2023/03/17 03:26:48;;;;;;;2.50;0.68;;;;;;;12.82;36.79;101095.34;4945095;28;20051;-70
2023/03/17 03:29:25;;;;;;;1.63;0.63;;;;;;;12.74;37.23;101092.56;4948734;28;20063;-71
2023/03/17 03:31:54;;;;;;;1.23;0.60;;;;;;;12.66;37.15;101091.47;4945085;28;20269;-70
2023/03/17 03:34:23;;;;;;;1.08;0.52;;;;;;;12.57;37.57;101092.13;4947712;28;20113;-70
2023/03/17 03:36:51;;;;;;;1.27;0.63;;;;;;;12.52;37.33;101092.81;4941926;28;20051;-70
2023/03/17 03:39:20;;;;;;;3.10;0.73;;;;;;;12.47;37.35;101084.03;4947423;28;20051;-70
2023/03/17 03:41:49;;;;;;;2.17;0.88;;;;;;;12.41;37.02;101094.25;4943253;28;20063;-70
2023/03/17 03:44:17;;;;;;;2.50;0.55;;;;;;;12.34;37.72;101091.47;4942688;29;20055;-69
2023/03/17 03:46:47;;;;;;;1.40;0.68;;;;;;;12.30;37.01;101094.84;4948663;28;20058;-70
2023/03/17 03:49:16;;;;;;;1.10;0.60;;;;;;;12.25;37.78;101104.19;4938920;28;20062;-69
2023/03/17 03:51:44;;;;;;;0.68;0.50;;;;;;;12.18;38.00;101106.56;4946424;28;20165;-70
2023/03/17 03:54:13;;;;;;;2.30;0.75;;;;;;;12.15;38.39;101104.78;4958441;28;20046;-71
2023/03/17 03:56:48;;;;;;;4.22;0.80;;;;;;;12.08;38.70;101100.25;4965506;28;20126;-71
2023/03/17 03:59:17;;;;;;;1.83;1.10;;;;;;;12.03;38.30;101096.66;4958003;28;20059;-70
2023/03/17 04:01:47;;;;;;;1.50;0.80;;;;;;;11.99;38.63;101099.97;4958324;28;20058;-71
2023/03/17 04:04:15;;;;;;;1.00;0.70;;;;;;;11.93;38.50;101096.38;4966278;28;20058;-71
2023/03/17 04:06:44;;;;;;;1.10;0.63;;;;;;;11.88;38.60;101097.94;4963189;28;20051;-71
2023/03/17 04:09:13;;;;;;;2.28;0.65;;;;;;;11.84;39.35;101090.91;4968492;28;20062;-71
2023/03/17 04:11:41;;;;;;;0.82;0.55;;;;;;;11.80;38.53;101101.13;4966101;28;20046;-73
2023/03/17 04:14:10;;;;;;;4.70;0.60;;;;;;;11.75;38.39;101101.00;4969981;28;20501;-72
2023/03/17 04:16:38;;;;;;;1.52;0.85;;;;;;;11.72;39.04;101113.84;4960409;28;20109;-71
2023/03/17 04:19:09;;;;;;;4.97;1.00;;;;;;;11.69;39.14;101111.16;4963362;28;20090;-71
2023/03/17 04:21:38;;;;;;;1.60;0.57;;;;;;;11.65;39.21;101115.34;4963198;28;20102;-71
2023/03/17 04:24:07;;;;;;;5.22;0.65;;;;;;;11.62;39.15;101122.19;4968189;28;20066;-71
2023/03/17 04:26:36;;;;;;;0.93;0.73;;;;;;;11.60;38.72;101111.75;4967827;28;20051;-70
2023/03/17 04:29:06;;;;;;;3.65;0.65;;;;;;;11.57;39.17;101108.19;4959548;28;20058;-71
2023/03/17 04:31:35;;;;;;;3.55;0.77;;;;;;;11.52;38.74;101119.31;4963542;28;20588;-70
2023/03/17 04:34:04;;;;;;;1.52;0.80;;;;;;;11.50;38.93;101125.28;4967888;28;20059;-71
2023/03/17 04:36:34;;;;;;;1.27;0.70;;;;;;;11.49;38.77;101134.72;4960459;28;20054;-71
2023/03/17 04:39:02;;;;;;;1.55;0.47;;;;;;;11.47;39.40;101131.22;4961190;28;20501;-70
2023/03/17 04:41:31;;;;;;;0.82;0.47;;;;;;;11.45;39.64;101130.31;4961719;28;20067;-70
2023/03/17 04:43:59;;;;;;;0.95;0.60;;;;;;;11.43;39.87;101133.66;4964613;28;20126;-69
2023/03/17 04:46:31;;;;;;;4.85;0.90;;;;;;;11.38;39.38;101133.50;4967426;28;20054;-71
2023/03/17 04:48:59;;;;;;;0.88;0.40;;;;;;;11.37;39.14;101133.47;4966821;28;20061;-70
2023/03/17 04:51:28;;;;;;;1.25;0.60;;;;;;;11.35;39.79;101136.00;4966343;28;20732;-71
2023/03/17 04:53:59;;;;;;;0.63;0.63;;;;;;;11.33;39.75;101142.84;4967506;28;20054;-69
2023/03/17 04:56:27;;;;;;;0.90;0.55;;;;;;;11.31;39.78;101149.69;4969701;28;20042;-69
2023/03/17 04:58:56;;;;;;;0.88;0.65;;;;;;;11.31;39.70;101152.28;4964955;28;20059;-69
2023/03/17 05:01:25;;;;;;;0.65;0.43;;;;;;;11.29;40.30;101156.53;4969757;28;20504;-69
2023/03/17 05:03:53;;;;;;;0.85;0.55;;;;;;;11.28;39.72;101158.25;4960241;28;20051;-69
2023/03/17 05:06:22;;;;;;;0.98;0.63;;;;;;;11.26;39.74;101154.72;4965755;28;20073;-69
2023/03/17 05:08:50;;;;;;;1.90;0.68;;;;;;;11.25;40.04;101157.28;4969074;28;20121;-70
2023/03/17 05:11:21;;;;;;;1.52;0.50;;;;;;;11.23;40.12;101154.63;4968759;28;20058;-70
2023/03/17 05:13:50;;;;;;;0.85;0.63;;;;;;;11.22;40.30;101159.75;4973037;28;20078;-71
2023/03/17 05:16:18;;;;;;;2.95;0.80;;;;;;;11.21;40.26;101165.78;4965830;28;20774;-70
2023/03/17 05:18:47;;;;;;;1.40;0.60;;;;;;;11.20;40.16;101169.16;4972570;28;20047;-69
2023/03/17 05:21:16;;;;;;;0.90;0.60;;;;;;;11.17;40.56;101180.31;4970857;28;20043;-70
2023/03/17 05:23:44;;;;;;;0.73;0.70;;;;;;;11.16;40.03;101185.47;4970100;28;20050;-70
2023/03/17 05:26:13;;;;;;;1.38;0.55;;;;;;;11.14;40.44;101184.53;4970168;28;20050;-70
2023/03/17 05:28:43;;;;;;;1.20;0.60;;;;;;;11.12;40.10;101194.81;4969142;28;20051;-70
2023/03/17 05:31:12;;;;;;;0.95;0.50;;;;;;;11.05;41.80;101185.09;4969155;28;20078;-70
2023/03/17 05:33:40;;;;;;;3.60;0.93;;;;;;;11.00;41.83;101184.94;4968573;28;20129;-70
2023/03/17 05:36:09;;;;;;;1.70;0.75;;;;;;;10.99;40.41;101185.75;4967680;28;20062;-70
2023/03/17 05:38:38;;;;;;;2.83;0.70;;;;;;;10.99;40.64;101187.47;4966532;28;20054;-70
2023/03/17 05:41:07;;;;;;;2.63;0.68;;;;;;;10.98;40.91;101201.25;4966776;28;20942;-70
2023/03/17 05:43:35;;;;;;;4.60;0.70;;;;;;;10.94;41.02;101210.59;4969696;28;20555;-70
2023/03/17 05:46:06;;;;;;;2.67;0.50;;;;;;;10.86;41.54;101214.66;4969062;28;20055;-70
2023/03/17 05:48:35;;;;;;;2.35;0.70;;;;;;;10.81;41.12;101224.84;4968674;28;20057;-70
2023/03/17 05:51:04;;;;;;;3.25;0.90;;;;;;;10.74;40.67;101221.94;4970475;28;20054;-70
2023/03/17 05:53:32;;;;;;;4.20;0.60;;;;;;;10.67;41.03;101232.09;4968047;28;20464;-70
2023/03/17 05:56:01;;;;;;;0.63;0.50;;;;;;;10.61;40.25;101237.03;4968292;28;20699;-70
2023/03/17 05:58:29;;;;;;;1.63;0.90;;;;;;;10.60;40.84;101247.31;4970891;28;20069;-70
2023/03/17 06:00:58;;;;;;;2.47;0.55;;;;;;;10.55;41.70;101249.75;4970658;28;20508;-71
2023/03/17 06:03:28;;;;;;;4.10;0.90;;;;;;;10.50;41.31;101253.88;4964155;28;20058;-71
2023/03/17 06:05:56;;;;;;;1.80;0.50;;;;;;;10.47;41.24;101254.63;4973333;28;20054;-70
2023/03/17 06:08:25;;;;;;;3.28;1.00;;;;;;;10.44;41.34;101253.63;4971507;28;20535;-70
2023/03/17 06:10:53;;;;;;;1.45;0.73;;;;;;;10.41;41.62;101266.44;4971671;28;20054;-70
2023/03/17 06:13:22;;;;;;;1.67;0.80;;;;;;;10.37;42.09;101259.41;4962989;28;20047;-71
2023/03/17 06:15:52;;;;;;;1.52;0.75;;;;;;;10.35;42.01;101268.78;4969497;28;20556;-71
2023/03/17 06:18:21;;;;;;;1.65;0.60;;;;;;;10.30;42.59;101270.34;4969686;28;20082;-69
2023/03/17 06:20:51;;;;;;;2.90;0.90;;;;;;;10.24;41.49;101277.00;4964117;28;20055;-71
2023/03/17 06:23:19;;;;;;;1.17;0.70;;;;;;;10.19;45.24;101278.53;4970859;28;20054;-69
2023/03/17 06:25:48;;;;;;;3.67;0.68;;;;;;;10.16;43.92;101282.69;4963763;28;20047;-69
2023/03/17 06:28:17;;;;;;;0.63;0.43;;;;;;;10.11;42.62;101279.91;4969191;28;20051;-70
2023/03/17 06:30:45;;;;;;;2.20;0.63;;;;;;;10.07;42.95;101285.78;4968946;28;20164;-70
2023/03/17 06:33:14;;;;;;;1.25;0.60;;;;;;;10.04;42.36;101288.25;4968016;28;20056;-71
2023/03/17 06:35:43;;;;;;;3.42;0.63;;;;;;;10.03;44.15;101297.72;4968852;28;20054;-70
2023/03/17 06:38:13;;;;;;;3.03;1.00;;;;;;;9.99;42.40;101300.13;4969578;28;20066;-71
2023/03/17 06:40:42;;;;;;;2.63;0.68;;;;;;;9.97;42.86;101301.75;4965472;28;20566;-70
2023/03/17 06:43:11;;;;;;;1.00;0.60;;;;;;;9.95;43.36;101306.84;4968902;28;20047;-71
2023/03/17 06:45:39;;;;;;;2.67;1.13;;;;;;;9.92;42.51;101309.34;4960578;28;20512;-70
2023/03/17 06:48:08;;;;;;;1.08;0.47;;;;;;;9.90;43.30;101310.09;4964633;28;20114;-69
2023/03/17 06:50:37;;;;;;;1.15;0.90;;;;;;;9.88;44.53;101322.94;4967051;28;20109;-70
2023/03/17 06:53:06;;;;;;;1.92;0.63;;;;;;;9.77;44.91;101330.25;4969661;28;20149;-70
2023/03/17 06:55:36;;;;;;;1.90;0.55;;;;;;;9.68;44.92;101335.03;4970222;28;20433;-70
2023/03/17 06:58:04;;;;;;;1.00;0.70;;;;;;;9.58;45.71;101338.03;4968843;28;20085;-70
2023/03/17 07:00:33;;;;;;;5.45;1.02;;;;;;;9.51;46.56;101330.84;4967025;28;20051;-71
2023/03/17 07:03:01;;;;;;;2.58;0.98;;;;;;;9.48;44.25;101330.69;4964054;28;20058;-70
2023/03/17 07:05:30;;;;;;;1.45;0.43;;;;;;;9.42;48.26;101332.22;4970817;28;20051;-70
2023/03/17 07:07:58;;;;;;;1.40;0.40;;;;;;;9.37;47.71;101328.56;4967598;28;20798;-70
2023/03/17 07:10:27;;;;;;;1.17;0.50;;;;;;;9.29;47.21;101324.75;4968924;28;20050;-70
2023/03/17 07:12:57;;;;;;;0.85;0.50;;;;;;;9.24;47.17;101328.81;4963129;28;20536;-70
2023/03/17 07:15:26;;;;;;;2.33;0.90;;;;;;;9.19;47.55;101338.94;4969458;28;20053;-70
2023/03/17 07:17:54;;;;;;;1.20;0.70;;;;;;;9.16;46.12;101343.09;4966062;28;20057;-70
2023/03/17 07:20:23;;;;;;;3.17;0.70;;;;;;;9.14;45.71;101339.53;4966018;28;20039;-70
2023/03/17 07:22:52;;;;;;;0.93;0.70;;;;;;;9.11;45.79;101334.25;4966744;28;20042;-70
2023/03/17 07:25:21;;;;;;;2.83;0.77;;;;;;;9.07;48.10;101334.94;4966710;28;20065;-70
2023/03/17 07:27:50;;;;;;;1.35;0.70;;;;;;;9.04;47.56;101337.38;4968822;28;20053;-70
2023/03/17 07:30:21;;;;;;;1.27;0.63;;;;;;;8.97;49.34;101339.69;4969185;28;20145;-70
2023/03/17 07:32:49;;;;;;;1.48;0.65;;;;;;;8.90;48.36;101329.03;4968345;28;20050;-70
2023/03/17 07:35:18;;;;;;;1.60;0.70;;;;;;;8.86;48.13;101324.53;4971768;28;21439;-70
2023/03/17 07:37:46;;;;;;;2.05;1.08;;;;;;;8.84;51.11;101323.56;4966428;28;20051;-70
2023/03/17 07:40:17;;;;;;;0.85;0.60;;;;;;;8.74;48.62;101312.81;4967920;28;20059;-70
2023/03/17 07:42:45;;;;;;;1.20;0.88;;;;;;;8.70;49.44;101310.03;4970584;28;20055;-70
2023/03/17 07:45:14;;;;;;;2.25;1.00;;;;;;;8.68;50.31;101301.34;4968538;28;20823;-70
2023/03/17 07:47:45;;;;;;;2.05;0.75;;;;;;;8.67;50.74;101299.59;4970937;28;20046;-70
2023/03/17 07:50:14;;;;;;;5.25;0.77;;;;;;;8.68;51.11;101306.50;4967955;28;20081;-70
2023/03/17 07:52:42;;;;;;;2.58;0.75;;;;;;;8.67;49.41;101299.59;4966287;28;20051;-70
2023/03/17 07:55:11;;;;;;;1.83;0.80;;;;;;;8.70;48.75;101299.72;4965124;28;20116;-70
2023/03/17 07:57:40;;;;;;;0.50;0.45;;;;;;;8.73;47.20;101299.88;4970825;28;20674;-70
2023/03/17 08:00:12;;;;;;;0.93;0.60;;;;;;;8.73;46.64;101294.72;4968726;28;20733;-70
2023/03/17 08:02:41;;;;;;;1.05;0.55;;;;;;;8.75;47.15;101301.72;4970814;28;20055;-70
2023/03/17 08:05:12;;;;;;;1.10;0.60;;;;;;;8.77;48.01;101288.84;4970195;28;20043;-70
2023/03/17 08:07:40;;;;;;;0.52;0.38;;;;;;;8.77;46.84;101287.19;4966066;28;20160;-70
2023/03/17 08:10:11;;;;;;;1.48;1.08;;;;;;;8.80;46.61;101304.50;4964396;28;20090;-70
2023/03/17 08:12:40;;;;;;;1.13;0.43;;;;;;;8.81;46.00;101293.34;4969104;28;20051;-70
2023/03/17 08:15:10;;;;;;;0.85;0.47;;;;;;;8.83;46.39;101289.16;4964128;28;20050;-70
2023/03/17 08:17:38;;;;;;;0.88;0.57;;;;;;;8.85;47.08;101286.66;4959930;28;20047;-70
2023/03/17 08:20:08;;;;;;;1.33;0.60;;;;;;;8.85;47.07;101292.69;4962206;28;20055;-70
2023/03/17 08:22:39;;;;;;;1.90;0.70;;;;;;;8.86;45.74;101301.31;4967882;28;20573;-70
2023/03/17 08:25:08;;;;;;;3.50;1.08;;;;;;;8.87;46.56;101303.97;4971158;28;20050;-69
2023/03/17 08:27:36;;;;;;;1.38;0.75;;;;;;;8.88;45.91;101317.75;4969823;28;20125;-69
2023/03/17 08:30:06;;;;;;;0.80;0.50;;;;;;;8.88;45.80;101307.41;4962435;28;20059;-70
2023/03/17 08:32:35;;;;;;;2.00;0.52;;;;;;;8.89;45.82;101307.50;4968277;28;20065;-70
2023/03/17 08:35:05;;;;;;;2.38;0.85;;;;;;;8.90;46.22;101317.00;4966157;28;20455;-70
2023/03/17 08:37:33;;;;;;;1.25;0.60;;;;;;;8.90;46.97;101324.72;4968743;28;20121;-71
2023/03/17 08:40:04;;;;;;;2.83;0.65;;;;;;;8.89;46.13;101312.66;4967589;28;20062;-69
2023/03/17 08:42:32;;;;;;;0.85;0.45;;;;;;;8.89;46.90;101307.50;4962758;28;20039;-71
2023/03/17 08:45:01;;;;;;;3.75;1.48;;;;;;;8.88;46.30;101310.88;4969062;28;20575;-70
2023/03/17 08:47:29;;;;;;;1.80;0.55;;;;;;;8.84;46.98;101308.97;4969642;28;20460;-70
2023/03/17 08:49:59;;;;;;;2.67;0.98;;;;;;;8.81;46.36;101316.56;4966995;28;20051;-70
2023/03/17 08:52:28;;;;;;;1.55;0.70;;;;;;;8.80;47.16;101322.56;4967952;28;20047;-70
2023/03/17 08:54:56;;;;;;;0.63;0.50;;;;;;;8.78;47.09;101319.03;4970849;28;20134;-70
2023/03/17 08:57:26;;;;;;;2.40;0.88;;;;;;;8.76;47.19;101320.66;4971125;28;20058;-70
2023/03/17 08:59:55;;;;;;;2.20;1.02;;;;;;;8.71;46.76;101327.31;4973369;28;20069;-70
2023/03/17 09:02:24;;;;;;;1.88;0.57;;;;;;;8.66;46.23;101327.09;4966992;28;20055;-70
2023/03/17 09:04:53;;;;;;;0.63;0.50;;;;;;;8.64;46.23;101320.97;4965472;28;20102;-70
2023/03/17 09:07:21;;;;;;;1.83;0.77;;;;;;;8.64;46.81;101325.25;4970519;28;20133;-69
2023/03/17 09:09:50;;;;;;;1.90;0.52;;;;;;;8.60;46.62;101319.94;4968306;28;20129;-70
2023/03/17 09:12:18;;;;;;;5.15;0.60;;;;;;;8.59;47.56;101335.38;4970980;28;20105;-70
2023/03/17 09:14:49;;;;;;;1.05;0.70;;;;;;;8.55;46.85;101339.47;4968442;28;20109;-70
2023/03/17 09:17:17;;;;;;;0.98;0.80;;;;;;;8.53;48.14;101337.63;4971857;28;20405;-70
2023/03/17 09:19:46;;;;;;;1.17;0.50;;;;;;;8.47;47.63;101333.06;4968906;28;20128;-70
2023/03/17 09:22:16;;;;;;;1.80;0.70;;;;;;;8.44;48.70;101332.94;4968268;28;20055;-70
2023/03/17 09:24:45;;;;;;;1.65;0.75;;;;;;;8.41;48.24;101331.88;4969747;28;20061;-70
2023/03/17 09:27:14;;;;;;;0.85;0.50;;;;;;;8.32;48.07;101322.88;4971870;28;20059;-70
2023/03/17 09:29:43;;;;;;;2.00;0.85;;;;;;;8.37;49.02;101328.25;4973408;28;20196;-70
2023/03/17 09:32:13;;;;;;;4.53;0.70;;;;;;;8.30;49.26;101324.50;4967440;28;20121;-70
2023/03/17 09:34:41;;;;;;;4.72;0.60;;;;;;;8.18;50.26;101332.53;4969647;28;20051;-70
2023/03/17 09:37:10;;;;;;;3.30;0.60;;;;;;;8.10;50.83;101326.13;4971002;28;20050;-70
2023/03/17 09:39:39;;;;;;;1.17;0.65;;;;;;;8.05;50.49;101326.72;4968558;28;20047;-70
2023/03/17 09:42:25;;;;;;;2.08;0.65;;;;;;;7.98;50.12;101321.25;4968488;28;20621;-70
2023/03/17 09:45:15;;;;;;;1.00;0.60;;;;;;;7.92;50.30;101320.06;4971397;28;20043;-70
2023/03/17 09:48:15;;;;;;;1.13;0.50;;;;;;;7.89;50.39;101309.63;4969850;28;20057;-70
2023/03/17 09:50:51;;;;;;;3.03;0.52;;;;;;;7.89;51.92;101312.19;4936375;28;20051;-69
2023/03/17 09:53:23;;;;;;;1.98;0.47;;;;;;;7.88;51.34;101312.97;4968824;28;20062;-70
2023/03/17 09:55:57;;;;;;;5.30;1.00;;;;;;;7.86;51.05;101319.78;4969248;28;20501;-69
2023/03/17 09:58:31;;;;;;;1.00;0.57;;;;;;;7.84;50.04;101327.44;4967835;28;20082;-69
2023/03/17 10:01:01;;;;;;;0.88;0.35;;;;;;;7.83;50.98;101327.34;4972382;28;20073;-70
2023/03/17 10:03:29;;;;;;;0.98;0.60;;;;;;;7.83;51.53;101319.59;4969808;28;20047;-69
2023/03/17 10:06:26;;;;;;;1.02;0.65;;;;;;;7.81;50.88;101319.56;4971105;28;20528;-70
2023/03/17 10:09:03;;;;;;;2.17;0.80;;;;;;;7.82;50.63;101317.84;4958126;28;20153;-70
2023/03/17 10:11:39;;;;;;;1.80;0.77;;;;;;;7.83;51.04;101317.91;4965483;28;20062;-69
2023/03/17 10:14:22;;;;;;;0.95;0.65;;;;;;;7.83;51.23;101310.19;4967401;28;20497;-70
2023/03/17 10:16:53;;;;;;;;;;;;;;;7.82;51.48;101307.56;4966626;28;20109;-70
2023/03/17 10:19:27;;;;;;;0.85;0.45;;;;;;;7.81;51.95;101313.50;4960310;28;20380;-70
2023/03/17 10:22:01;;;;;;;1.52;0.63;;;;;;;7.79;51.41;101313.44;4969065;28;20114;-69
2023/03/17 10:24:32;;;;;;;1.17;0.60;;;;;;;7.79;50.75;101321.16;4968627;28;20050;-70
2023/03/17 10:27:05;;;;;;;1.75;1.13;;;;;;;7.75;50.44;101327.84;4969946;28;20967;-69
2023/03/17 10:29:33;;;;;;;1.35;0.55;;;;;;;7.73;49.79;101324.31;4966397;28;20519;-70
2023/03/17 10:32:02;;;;;;;1.33;0.60;;;;;;;7.68;49.01;101320.63;4968321;28;20081;-70
2023/03/17 10:34:32;;;;;;;1.45;0.70;;;;;;;7.66;50.76;101327.38;4969519;28;20130;-70
2023/03/17 10:37:05;;;;;;;4.07;0.90;;;;;;;7.61;50.64;101339.16;4967518;28;20058;-70
2023/03/17 10:39:45;;;;;;;1.45;0.63;;;;;;;7.58;50.40;101338.09;4968670;28;20054;-70
2023/03/17 10:42:20;;;;;;;2.35;1.27;;;;;;;7.53;50.95;101332.72;4967937;28;20161;-70
2023/03/17 10:44:53;;;;;;;2.88;1.00;;;;;;;7.46;51.81;101323.78;4960718;28;20544;-71
2023/03/17 10:47:26;;;;;;;3.63;1.55;;;;;;;7.42;52.05;101331.28;4966605;28;20039;-70
2023/03/17 10:49:57;;;;;;;6.00;1.90;;;;;;;7.37;51.94;101322.44;4966738;28;20043;-70
2023/03/17 10:52:30;;;;;;;3.13;1.63;;;;;;;7.31;52.62;101317.88;4970172;28;20520;-70
2023/03/17 10:55:05;;;;;;;2.85;1.77;;;;;;;7.25;53.64;101307.25;4967658;28;20556;-70
2023/03/17 10:57:37;;;;;;;1.92;1.30;;;;;;;7.17;53.91;101301.72;4970531;28;20115;-70
2023/03/17 11:00:15;;;;;;;12.60;1.83;;;;;;;7.08;53.81;101303.81;4968113;28;20054;-70
2023/03/17 11:02:46;;;;;;;3.10;1.42;;;;;;;7.03;54.55;101310.38;4968898;28;20139;-70
2023/03/17 11:05:21;;;;;;;1.95;0.95;;;;;;;6.97;54.98;101322.94;4970428;28;20078;-70
2023/03/17 11:07:57;;;;;;;2.22;0.90;;;;;;;6.89;55.10;101318.28;4969905;28;20055;-70
2023/03/17 11:10:28;;;;;;;1.85;1.00;;;;;;;6.81;56.18;101310.97;4964907;28;20190;-70
2023/03/17 11:13:00;;;;;;;2.70;1.05;;;;;;;6.75;56.14;101306.34;4968721;28;20086;-70
2023/03/17 11:15:33;;;;;;;1.10;0.82;;;;;;;6.66;57.06;101309.31;4967264;28;20054;-70
2023/03/17 11:18:02;;;;;;;;;;;;;;;6.60;56.98;101310.69;4970738;28;20141;-68
2023/03/17 11:20:41;;;;;;;5.40;1.40;;;;;;;6.54;57.44;101308.66;4969874;28;20387;-69
2023/03/17 11:23:35;;;;;;;2.33;1.35;;;;;;;6.46;58.04;101305.69;4966197;28;20047;-69
2023/03/17 11:26:16;;;;;;;3.45;1.63;;;;;;;6.40;58.67;101299.31;4968667;28;20497;-71
2023/03/17 11:28:51;;;;;;;3.65;1.70;;;;;;;6.29;58.96;101298.72;4966389;28;20063;-69
2023/03/17 11:31:28;;;;;;;3.20;1.23;;;;;;;6.28;59.16;101309.81;4962579;28;20054;-69
2023/03/17 11:34:07;;;;;;;5.13;1.52;;;;;;;6.22;58.95;101305.19;4966458;28;20058;-69
2023/03/17 11:36:52;;;;;;;1.77;1.08;;;;;;;6.17;59.43;101305.75;4966481;28;20056;-70
2023/03/17 11:39:27;;;;;;;3.35;1.63;;;;;;;6.13;59.59;101308.94;4968753;28;20055;-71
2023/03/17 11:42:06;;;;;;;5.30;1.92;;;;;;;6.08;59.92;101317.25;4968305;28;20135;-70
2023/03/17 11:44:58;;;;;;;2.28;1.15;;;;;;;6.03;60.03;101313.56;4962664;28;20055;-70